sensor_id;sensor_type;location;lat;lon;timestamp;P1;durP1;ratioP1;P2;durP2;ratioP2
69053;SDS011;56125;52.242;4.756;2023-02-15T00:02:31;19.23;;;11.80;;
69053;SDS011;56125;52.242;4.756;2023-02-15T00:07:32;18.85;;;11.25;;
69053;SDS011;56125;52.242;4.756;2023-02-15T00:12:33;21.10;;;11.57;;
69053;SDS011;56125;52.242;4.756;2023-02-15T00:17:34;16.08;;;10.10;;
69053;SDS011;56125;52.242;4.756;2023-02-15T00:22:35;18.50;;;10.60;;
69053;SDS011;56125;52.242;4.756;2023-02-15T00:27:36;13.80;;;9.20;;
69053;SDS011;56125;52.242;4.756;2023-02-15T00:32:37;15.33;;;9.60;;
69053;SDS011;56125;52.242;4.756;2023-02-15T00:37:38;15.20;;;9.65;;
69053;SDS011;56125;52.242;4.756;2023-02-15T00:42:39;11.87;;;8.27;;
69053;SDS011;56125;52.242;4.756;2023-02-15T00:47:40;15.40;;;8.48;;
69053;SDS011;56125;52.242;4.756;2023-02-15T00:52:41;12.67;;;8.20;;
69053;SDS011;56125;52.242;4.756;2023-02-15T00:57:42;12.07;;;8.52;;
69053;SDS011;56125;52.242;4.756;2023-02-15T01:02:43;13.07;;;7.93;;
69053;SDS011;56125;52.242;4.756;2023-02-15T01:07:44;12.57;;;7.72;;
69053;SDS011;56125;52.242;4.756;2023-02-15T01:12:45;10.87;;;7.43;;
69053;SDS011;56125;52.242;4.756;2023-02-15T01:17:46;12.02;;;7.25;;
69053;SDS011;56125;52.242;4.756;2023-02-15T01:22:53;9.80;;;6.90;;
69053;SDS011;56125;52.242;4.756;2023-02-15T01:27:55;10.48;;;7.20;;
69053;SDS011;56125;52.242;4.756;2023-02-15T01:32:56;9.63;;;7.00;;
69053;SDS011;56125;52.242;4.756;2023-02-15T01:37:57;9.18;;;6.68;;
69053;SDS011;56125;52.242;4.756;2023-02-15T01:42:58;8.63;;;6.70;;
69053;SDS011;56125;52.242;4.756;2023-02-15T01:48:02;9.93;;;6.88;;
69053;SDS011;56125;52.242;4.756;2023-02-15T01:58:34;11.25;;;7.00;;
69053;SDS011;56125;52.242;4.756;2023-02-15T02:09:09;9.40;;;6.40;;
69053;SDS011;56125;52.242;4.756;2023-02-15T02:14:10;8.00;;;5.83;;
69053;SDS011;56125;52.242;4.756;2023-02-15T02:30:13;8.95;;;6.05;;
69053;SDS011;56125;52.242;4.756;2023-02-15T02:35:52;8.97;;;6.10;;
69053;SDS011;56125;52.242;4.756;2023-02-15T02:41:22;8.00;;;5.63;;
69053;SDS011;56125;52.242;4.756;2023-02-15T02:46:37;6.93;;;5.70;;
69053;SDS011;56125;52.242;4.756;2023-02-15T02:51:42;9.00;;;6.00;;
69053;SDS011;56125;52.242;4.756;2023-02-15T02:56:43;6.60;;;5.10;;
69053;SDS011;56125;52.242;4.756;2023-02-15T03:01:54;6.78;;;5.57;;
69053;SDS011;56125;52.242;4.756;2023-02-15T03:07:19;7.27;;;5.30;;
69053;SDS011;56125;52.242;4.756;2023-02-15T03:17:35;7.00;;;5.17;;
69053;SDS011;56125;52.242;4.756;2023-02-15T03:22:40;6.93;;;5.28;;
69053;SDS011;56125;52.242;4.756;2023-02-15T03:27:51;6.30;;;5.37;;
69053;SDS011;56125;52.242;4.756;2023-02-15T03:32:59;6.82;;;4.78;;
69053;SDS011;56125;52.242;4.756;2023-02-15T03:38:01;5.43;;;4.83;;
69053;SDS011;56125;52.242;4.756;2023-02-15T03:43:11;6.65;;;5.05;;
69053;SDS011;56125;52.242;4.756;2023-02-15T03:48:16;6.90;;;5.03;;
69053;SDS011;56125;52.242;4.756;2023-02-15T03:53:19;5.68;;;4.55;;
69053;SDS011;56125;52.242;4.756;2023-02-15T03:58:22;6.07;;;4.63;;
69053;SDS011;56125;52.242;4.756;2023-02-15T04:08:51;6.20;;;4.60;;
69053;SDS011;56125;52.242;4.756;2023-02-15T04:14:10;5.90;;;4.40;;
69053;SDS011;56125;52.242;4.756;2023-02-15T04:19:30;7.17;;;4.57;;
69053;SDS011;56125;52.242;4.756;2023-02-15T04:24:49;7.22;;;4.85;;
69053;SDS011;56125;52.242;4.756;2023-02-15T04:30:10;5.97;;;4.70;;
69053;SDS011;56125;52.242;4.756;2023-02-15T04:35:13;6.50;;;4.32;;
69053;SDS011;56125;52.242;4.756;2023-02-15T04:40:14;5.93;;;4.33;;
69053;SDS011;56125;52.242;4.756;2023-02-15T04:45:16;5.85;;;4.70;;
69053;SDS011;56125;52.242;4.756;2023-02-15T04:50:17;5.77;;;4.10;;
69053;SDS011;56125;52.242;4.756;2023-02-15T04:55:18;4.82;;;3.75;;
69053;SDS011;56125;52.242;4.756;2023-02-15T05:00:19;5.40;;;4.40;;
69053;SDS011;56125;52.242;4.756;2023-02-15T05:05:20;5.63;;;4.13;;
69053;SDS011;56125;52.242;4.756;2023-02-15T05:10:21;5.63;;;4.10;;
69053;SDS011;56125;52.242;4.756;2023-02-15T05:15:22;4.93;;;3.90;;
69053;SDS011;56125;52.242;4.756;2023-02-15T05:20:23;4.23;;;3.70;;
69053;SDS011;56125;52.242;4.756;2023-02-15T05:25:25;5.38;;;3.90;;
69053;SDS011;56125;52.242;4.756;2023-02-15T05:31:06;5.57;;;4.03;;
69053;SDS011;56125;52.242;4.756;2023-02-15T05:36:08;5.25;;;4.15;;
69053;SDS011;56125;52.242;4.756;2023-02-15T05:41:10;4.90;;;3.90;;
69053;SDS011;56125;52.242;4.756;2023-02-15T05:46:11;5.97;;;3.92;;
69053;SDS011;56125;52.242;4.756;2023-02-15T05:51:13;4.77;;;3.70;;
69053;SDS011;56125;52.242;4.756;2023-02-15T05:56:15;4.78;;;3.70;;
69053;SDS011;56125;52.242;4.756;2023-02-15T06:01:17;5.27;;;3.93;;
69053;SDS011;56125;52.242;4.756;2023-02-15T06:06:19;7.32;;;4.40;;
69053;SDS011;56125;52.242;4.756;2023-02-15T06:11:20;6.50;;;4.10;;
69053;SDS011;56125;52.242;4.756;2023-02-15T06:16:21;6.38;;;4.47;;
69053;SDS011;56125;52.242;4.756;2023-02-15T06:21:22;10.07;;;5.37;;
69053;SDS011;56125;52.242;4.756;2023-02-15T06:26:23;6.78;;;4.82;;
69053;SDS011;56125;52.242;4.756;2023-02-15T06:31:24;8.57;;;5.20;;
69053;SDS011;56125;52.242;4.756;2023-02-15T06:36:25;8.93;;;5.05;;
69053;SDS011;56125;52.242;4.756;2023-02-15T06:41:27;9.80;;;5.60;;
69053;SDS011;56125;52.242;4.756;2023-02-15T06:46:28;10.50;;;5.55;;
69053;SDS011;56125;52.242;4.756;2023-02-15T06:51:29;10.17;;;5.53;;
69053;SDS011;56125;52.242;4.756;2023-02-15T06:56:30;9.30;;;5.78;;
69053;SDS011;56125;52.242;4.756;2023-02-15T07:01:31;9.17;;;5.40;;
69053;SDS011;56125;52.242;4.756;2023-02-15T07:06:32;11.25;;;6.03;;
69053;SDS011;56125;52.242;4.756;2023-02-15T07:11:34;8.03;;;5.33;;
69053;SDS011;56125;52.242;4.756;2023-02-15T07:16:53;9.40;;;5.85;;
69053;SDS011;56125;52.242;4.756;2023-02-15T07:21:55;8.90;;;5.27;;
69053;SDS011;56125;52.242;4.756;2023-02-15T07:26:56;9.93;;;5.50;;
69053;SDS011;56125;52.242;4.756;2023-02-15T07:31:58;9.30;;;5.63;;
69053;SDS011;56125;52.242;4.756;2023-02-15T07:36:59;10.60;;;6.35;;
69053;SDS011;56125;52.242;4.756;2023-02-15T07:42:00;9.37;;;6.27;;
69053;SDS011;56125;52.242;4.756;2023-02-15T07:47:01;12.40;;;5.55;;
69053;SDS011;56125;52.242;4.756;2023-02-15T07:52:02;8.23;;;5.53;;
69053;SDS011;56125;52.242;4.756;2023-02-15T07:57:03;9.65;;;5.85;;
69053;SDS011;56125;52.242;4.756;2023-02-15T08:02:08;9.23;;;5.80;;
69053;SDS011;56125;52.242;4.756;2023-02-15T08:07:10;9.48;;;6.07;;
69053;SDS011;56125;52.242;4.756;2023-02-15T08:12:11;9.00;;;5.43;;
69053;SDS011;56125;52.242;4.756;2023-02-15T08:17:12;9.63;;;5.68;;
69053;SDS011;56125;52.242;4.756;2023-02-15T08:22:13;11.17;;;5.90;;
69053;SDS011;56125;52.242;4.756;2023-02-15T08:27:15;8.82;;;5.68;;
69053;SDS011;56125;52.242;4.756;2023-02-15T08:32:16;8.97;;;5.80;;
69053;SDS011;56125;52.242;4.756;2023-02-15T08:37:17;9.70;;;6.38;;
69053;SDS011;56125;52.242;4.756;2023-02-15T08:42:18;10.60;;;5.90;;
69053;SDS011;56125;52.242;4.756;2023-02-15T08:47:21;9.25;;;5.68;;
69053;SDS011;56125;52.242;4.756;2023-02-15T08:52:22;10.67;;;5.67;;
69053;SDS011;56125;52.242;4.756;2023-02-15T08:57:23;11.13;;;6.63;;
69053;SDS011;56125;52.242;4.756;2023-02-15T09:02:24;11.57;;;6.47;;
69053;SDS011;56125;52.242;4.756;2023-02-15T09:07:25;10.75;;;6.70;;
69053;SDS011;56125;52.242;4.756;2023-02-15T09:12:26;10.30;;;6.70;;
69053;SDS011;56125;52.242;4.756;2023-02-15T09:17:27;10.65;;;6.50;;
69053;SDS011;56125;52.242;4.756;2023-02-15T09:22:28;9.37;;;6.10;;
69053;SDS011;56125;52.242;4.756;2023-02-15T09:27:31;9.93;;;6.45;;
69053;SDS011;56125;52.242;4.756;2023-02-15T09:32:32;10.63;;;5.90;;
69053;SDS011;56125;52.242;4.756;2023-02-15T09:37:33;10.50;;;6.65;;
69053;SDS011;56125;52.242;4.756;2023-02-15T09:42:41;9.70;;;6.27;;
69053;SDS011;56125;52.242;4.756;2023-02-15T09:48:13;10.20;;;6.85;;
69053;SDS011;56125;52.242;4.756;2023-02-15T10:14:17;10.73;;;7.13;;
69053;SDS011;56125;52.242;4.756;2023-02-15T10:19:29;12.07;;;6.93;;
69053;SDS011;56125;52.242;4.756;2023-02-15T10:24:50;11.20;;;6.70;;
69053;SDS011;56125;52.242;4.756;2023-02-15T10:35:46;11.07;;;7.00;;
69053;SDS011;56125;52.242;4.756;2023-02-15T10:41:32;13.35;;;7.38;;
69053;SDS011;56125;52.242;4.756;2023-02-15T10:46:46;12.73;;;7.70;;
69053;SDS011;56125;52.242;4.756;2023-02-15T10:57:40;10.40;;;7.27;;
69053;SDS011;56125;52.242;4.756;2023-02-15T11:02:51;12.23;;;7.57;;
69053;SDS011;56125;52.242;4.756;2023-02-15T11:08:00;12.47;;;7.20;;
69053;SDS011;56125;52.242;4.756;2023-02-15T11:13:09;16.08;;;8.07;;
69053;SDS011;56125;52.242;4.756;2023-02-15T11:18:30;13.53;;;8.27;;
69053;SDS011;56125;52.242;4.756;2023-02-15T11:23:42;14.05;;;8.23;;
69053;SDS011;56125;52.242;4.756;2023-02-15T11:28:55;14.47;;;8.43;;
69053;SDS011;56125;52.242;4.756;2023-02-15T11:34:04;12.80;;;8.48;;
69053;SDS011;56125;52.242;4.756;2023-02-15T11:39:13;14.83;;;8.40;;
69053;SDS011;56125;52.242;4.756;2023-02-15T11:49:30;15.03;;;8.67;;
69053;SDS011;56125;52.242;4.756;2023-02-15T11:54:35;15.38;;;8.77;;
69053;SDS011;56125;52.242;4.756;2023-02-15T11:59:40;13.57;;;8.27;;
69053;SDS011;56125;52.242;4.756;2023-02-15T12:04:58;13.70;;;8.68;;
69053;SDS011;56125;52.242;4.756;2023-02-15T12:10:03;16.10;;;9.33;;
69053;SDS011;56125;52.242;4.756;2023-02-15T12:15:08;12.40;;;7.75;;
69053;SDS011;56125;52.242;4.756;2023-02-15T12:30:36;17.83;;;9.63;;
69053;SDS011;56125;52.242;4.756;2023-02-15T12:35:38;15.00;;;8.95;;
69053;SDS011;56125;52.242;4.756;2023-02-15T12:40:39;14.50;;;9.27;;
69053;SDS011;56125;52.242;4.756;2023-02-15T12:45:40;15.77;;;9.00;;
69053;SDS011;56125;52.242;4.756;2023-02-15T12:50:42;17.13;;;9.10;;
69053;SDS011;56125;52.242;4.756;2023-02-15T12:55:51;16.92;;;9.25;;
69053;SDS011;56125;52.242;4.756;2023-02-15T13:01:04;14.20;;;9.63;;
69053;SDS011;56125;52.242;4.756;2023-02-15T13:06:14;15.93;;;9.27;;
69053;SDS011;56125;52.242;4.756;2023-02-15T13:11:24;17.53;;;10.10;;
69053;SDS011;56125;52.242;4.756;2023-02-15T13:16:36;15.38;;;9.38;;
69053;SDS011;56125;52.242;4.756;2023-02-15T13:21:39;16.33;;;9.50;;
69053;SDS011;56125;52.242;4.756;2023-02-15T13:26:44;19.35;;;10.00;;
69053;SDS011;56125;52.242;4.756;2023-02-15T13:31:48;15.53;;;9.43;;
69053;SDS011;56125;52.242;4.756;2023-02-15T13:37:08;15.60;;;9.60;;
69053;SDS011;56125;52.242;4.756;2023-02-15T13:42:23;16.93;;;9.63;;
69053;SDS011;56125;52.242;4.756;2023-02-15T13:47:32;15.00;;;9.00;;
69053;SDS011;56125;52.242;4.756;2023-02-15T13:52:57;16.17;;;10.37;;
69053;SDS011;56125;52.242;4.756;2023-02-15T14:04:09;17.07;;;9.83;;
69053;SDS011;56125;52.242;4.756;2023-02-15T14:09:26;16.60;;;9.30;;
69053;SDS011;56125;52.242;4.756;2023-02-15T14:20:11;17.77;;;9.75;;
69053;SDS011;56125;52.242;4.756;2023-02-15T14:25:31;15.50;;;8.70;;
69053;SDS011;56125;52.242;4.756;2023-02-15T14:30:50;16.27;;;9.90;;
69053;SDS011;56125;52.242;4.756;2023-02-15T14:35:53;17.73;;;9.40;;
69053;SDS011;56125;52.242;4.756;2023-02-15T14:40:57;16.95;;;9.55;;
69053;SDS011;56125;52.242;4.756;2023-02-15T14:46:11;17.73;;;9.70;;
69053;SDS011;56125;52.242;4.756;2023-02-15T14:51:39;17.13;;;10.05;;
69053;SDS011;56125;52.242;4.756;2023-02-15T14:56:40;16.30;;;9.73;;
69053;SDS011;56125;52.242;4.756;2023-02-15T15:01:41;17.67;;;9.50;;
69053;SDS011;56125;52.242;4.756;2023-02-15T15:06:59;17.10;;;8.90;;
69053;SDS011;56125;52.242;4.756;2023-02-15T15:22:34;15.20;;;9.10;;
69053;SDS011;56125;52.242;4.756;2023-02-15T15:27:47;15.17;;;9.07;;
69053;SDS011;56125;52.242;4.756;2023-02-15T15:38:05;16.47;;;8.57;;
69053;SDS011;56125;52.242;4.756;2023-02-15T15:43:31;14.23;;;8.48;;
69053;SDS011;56125;52.242;4.756;2023-02-15T15:48:53;13.77;;;8.70;;
69053;SDS011;56125;52.242;4.756;2023-02-15T15:53:54;14.50;;;8.50;;
69053;SDS011;56125;52.242;4.756;2023-02-15T15:59:01;15.07;;;9.03;;
69053;SDS011;56125;52.242;4.756;2023-02-15T16:04:05;15.85;;;8.85;;
69053;SDS011;56125;52.242;4.756;2023-02-15T16:14:54;14.73;;;9.75;;
69053;SDS011;56125;52.242;4.756;2023-02-15T16:31:10;17.47;;;9.23;;
69053;SDS011;56125;52.242;4.756;2023-02-15T16:36:25;15.30;;;9.02;;
69053;SDS011;56125;52.242;4.756;2023-02-15T16:41:29;15.47;;;8.50;;
69053;SDS011;56125;52.242;4.756;2023-02-15T16:46:31;15.05;;;9.15;;
69053;SDS011;56125;52.242;4.756;2023-02-15T16:51:44;18.33;;;9.97;;
69053;SDS011;56125;52.242;4.756;2023-02-15T16:56:53;17.55;;;9.57;;
69053;SDS011;56125;52.242;4.756;2023-02-15T17:01:55;16.53;;;9.20;;
69053;SDS011;56125;52.242;4.756;2023-02-15T17:07:04;17.40;;;9.35;;
69053;SDS011;56125;52.242;4.756;2023-02-15T17:17:48;18.13;;;9.98;;
69053;SDS011;56125;52.242;4.756;2023-02-15T17:22:50;20.90;;;10.53;;
69053;SDS011;56125;52.242;4.756;2023-02-15T17:27:53;20.23;;;10.57;;
69053;SDS011;56125;52.242;4.756;2023-02-15T17:32:59;20.07;;;9.77;;
69053;SDS011;56125;52.242;4.756;2023-02-15T17:38:04;16.35;;;9.52;;
69053;SDS011;56125;52.242;4.756;2023-02-15T17:43:05;16.20;;;10.13;;
69053;SDS011;56125;52.242;4.756;2023-02-15T17:48:09;16.75;;;9.25;;
69053;SDS011;56125;52.242;4.756;2023-02-15T17:53:19;20.97;;;9.70;;
69053;SDS011;56125;52.242;4.756;2023-02-15T17:58:20;17.77;;;9.70;;
69053;SDS011;56125;52.242;4.756;2023-02-15T18:03:24;17.25;;;10.02;;
69053;SDS011;56125;52.242;4.756;2023-02-15T18:08:46;14.93;;;8.90;;
69053;SDS011;56125;52.242;4.756;2023-02-15T18:14:06;16.08;;;8.57;;
69053;SDS011;56125;52.242;4.756;2023-02-15T18:19:10;14.30;;;8.20;;
69053;SDS011;56125;52.242;4.756;2023-02-15T18:24:21;15.27;;;8.68;;
69053;SDS011;56125;52.242;4.756;2023-02-15T18:29:24;14.40;;;8.50;;
69053;SDS011;56125;52.242;4.756;2023-02-15T18:34:29;14.02;;;8.65;;
69053;SDS011;56125;52.242;4.756;2023-02-15T18:39:44;13.00;;;7.63;;
69053;SDS011;56125;52.242;4.756;2023-02-15T18:44:47;13.60;;;7.63;;
69053;SDS011;56125;52.242;4.756;2023-02-15T18:49:50;12.40;;;7.97;;
69053;SDS011;56125;52.242;4.756;2023-02-15T18:54:57;14.25;;;7.60;;
69053;SDS011;56125;52.242;4.756;2023-02-15T19:00:01;14.93;;;8.77;;
69053;SDS011;56125;52.242;4.756;2023-02-15T19:05:05;12.85;;;7.65;;
69053;SDS011;56125;52.242;4.756;2023-02-15T19:10:07;12.63;;;7.43;;
69053;SDS011;56125;52.242;4.756;2023-02-15T19:15:13;13.77;;;7.80;;
69053;SDS011;56125;52.242;4.756;2023-02-15T19:20:19;15.67;;;8.40;;
69053;SDS011;56125;52.242;4.756;2023-02-15T19:25:27;21.25;;;8.90;;
69053;SDS011;56125;52.242;4.756;2023-02-15T19:30:30;13.33;;;8.90;;
69053;SDS011;56125;52.242;4.756;2023-02-15T19:35:33;15.18;;;8.73;;
69053;SDS011;56125;52.242;4.756;2023-02-15T19:40:34;17.50;;;8.97;;
69053;SDS011;56125;52.242;4.756;2023-02-15T19:45:36;15.05;;;9.27;;
69053;SDS011;56125;52.242;4.756;2023-02-15T19:50:37;17.97;;;8.93;;
69053;SDS011;56125;52.242;4.756;2023-02-15T19:55:38;14.50;;;9.55;;
69053;SDS011;56125;52.242;4.756;2023-02-15T20:00:40;17.43;;;9.47;;
69053;SDS011;56125;52.242;4.756;2023-02-15T20:05:41;16.40;;;8.98;;
69053;SDS011;56125;52.242;4.756;2023-02-15T20:10:43;16.07;;;9.10;;
69053;SDS011;56125;52.242;4.756;2023-02-15T20:15:45;14.63;;;8.98;;
69053;SDS011;56125;52.242;4.756;2023-02-15T20:20:48;16.60;;;9.33;;
69053;SDS011;56125;52.242;4.756;2023-02-15T20:25:51;17.15;;;8.77;;
69053;SDS011;56125;52.242;4.756;2023-02-15T20:30:53;14.93;;;9.50;;
69053;SDS011;56125;52.242;4.756;2023-02-15T20:35:55;15.30;;;9.00;;
69053;SDS011;56125;52.242;4.756;2023-02-15T20:40:56;15.13;;;9.60;;
69053;SDS011;56125;52.242;4.756;2023-02-15T20:46:17;15.93;;;8.85;;
69053;SDS011;56125;52.242;4.756;2023-02-15T20:51:19;16.40;;;9.20;;
69053;SDS011;56125;52.242;4.756;2023-02-15T20:56:22;16.10;;;9.18;;
69053;SDS011;56125;52.242;4.756;2023-02-15T21:01:23;15.17;;;9.00;;
69053;SDS011;56125;52.242;4.756;2023-02-15T21:06:24;13.90;;;8.57;;
69053;SDS011;56125;52.242;4.756;2023-02-15T21:11:25;15.53;;;9.27;;
69053;SDS011;56125;52.242;4.756;2023-02-15T21:16:26;16.50;;;8.88;;
69053;SDS011;56125;52.242;4.756;2023-02-15T21:21:27;15.33;;;9.40;;
69053;SDS011;56125;52.242;4.756;2023-02-15T21:26:29;14.95;;;8.35;;
69053;SDS011;56125;52.242;4.756;2023-02-15T21:31:30;16.50;;;9.43;;
69053;SDS011;56125;52.242;4.756;2023-02-15T21:36:31;14.90;;;8.38;;
69053;SDS011;56125;52.242;4.756;2023-02-15T21:41:32;14.67;;;8.60;;
69053;SDS011;56125;52.242;4.756;2023-02-15T21:46:51;15.05;;;9.30;;
69053;SDS011;56125;52.242;4.756;2023-02-15T21:52:12;15.73;;;8.73;;
69053;SDS011;56125;52.242;4.756;2023-02-15T21:57:15;14.73;;;8.27;;
69053;SDS011;56125;52.242;4.756;2023-02-15T22:02:23;15.60;;;8.47;;
69053;SDS011;56125;52.242;4.756;2023-02-15T22:07:26;15.93;;;8.82;;
69053;SDS011;56125;52.242;4.756;2023-02-15T22:12:27;13.27;;;8.57;;
69053;SDS011;56125;52.242;4.756;2023-02-15T22:17:28;16.95;;;9.23;;
69053;SDS011;56125;52.242;4.756;2023-02-15T22:22:30;16.57;;;8.57;;
69053;SDS011;56125;52.242;4.756;2023-02-15T22:27:33;17.63;;;9.48;;
69053;SDS011;56125;52.242;4.756;2023-02-15T22:32:38;16.33;;;9.03;;
69053;SDS011;56125;52.242;4.756;2023-02-15T22:37:40;15.70;;;9.68;;
69053;SDS011;56125;52.242;4.756;2023-02-15T22:42:41;15.23;;;8.63;;
69053;SDS011;56125;52.242;4.756;2023-02-15T22:47:48;15.13;;;9.00;;
69053;SDS011;56125;52.242;4.756;2023-02-15T22:52:52;15.90;;;8.50;;
69053;SDS011;56125;52.242;4.756;2023-02-15T22:57:53;14.23;;;8.20;;
69053;SDS011;56125;52.242;4.756;2023-02-15T23:02:56;17.00;;;9.23;;
69053;SDS011;56125;52.242;4.756;2023-02-15T23:07:57;14.27;;;8.82;;
69053;SDS011;56125;52.242;4.756;2023-02-15T23:12:58;15.53;;;9.20;;
69053;SDS011;56125;52.242;4.756;2023-02-15T23:18:20;14.48;;;8.65;;
69053;SDS011;56125;52.242;4.756;2023-02-15T23:23:26;15.37;;;8.93;;
69053;SDS011;56125;52.242;4.756;2023-02-15T23:28:33;13.73;;;8.35;;
69053;SDS011;56125;52.242;4.756;2023-02-15T23:33:36;15.57;;;9.13;;
69053;SDS011;56125;52.242;4.756;2023-02-15T23:38:37;14.05;;;8.70;;
69053;SDS011;56125;52.242;4.756;2023-02-15T23:43:38;13.90;;;8.47;;
69053;SDS011;56125;52.242;4.756;2023-02-15T23:48:41;15.15;;;8.80;;
69053;SDS011;56125;52.242;4.756;2023-02-15T23:53:43;15.73;;;9.73;;
69053;SDS011;56125;52.242;4.756;2023-02-15T23:58:44;13.80;;;8.95;;
